Time;durP1;ratioP1;P1;durP2;ratioP2;P2;SDS_P1;SDS_P2;PMS_P1;PMS_P2;Temp;Humidity;BMP_temperature;BMP_pressure;BME280_temperature;BME280_humidity;BME280_pressure;Samples;Min_cycle;Max_cycle;Signal;HPM_P1;HPM_P2
2024/03/17 00:01:17;;;;;;;15.80;4.10;;;;;;;7.30;76.36;100359.30;667903;1278;138985;-82
2024/03/17 00:16:20;;;;;;;13.30;3.40;;;;;;;7.14;76.17;100365.27;667089;1262;139216;-80
2024/03/17 00:31:23;;;;;;;9.60;3.40;;;;;;;6.91;75.95;100361.56;667950;1267;138932;-81
2024/03/17 00:46:26;;;;;;;12.60;2.80;;;;;;;6.71;75.86;100356.67;666896;1267;138420;-82
2024/03/17 01:01:30;;;;;;;12.60;3.40;;;;;;;6.58;75.64;100354.67;667027;1267;138791;-80
2024/03/17 01:16:33;;;;;;;12.10;3.20;;;;;;;6.40;75.80;100350.65;667350;1266;138925;-81
2024/03/17 01:31:37;;;;;;;14.90;3.40;;;;;;;6.48;75.93;100341.06;667360;1266;142597;-79
2024/03/17 01:46:40;;;;;;;7.10;2.50;;;;;;;6.73;75.93;100335.01;667686;1266;138407;-79
2024/03/17 02:01:43;;;;;;;15.60;3.20;;;;;;;6.83;75.64;100326.13;667117;1268;139382;-79
2024/03/17 02:16:46;;;;;;;9.40;3.00;;;;;;;7.04;73.98;100322.73;666906;1267;138883;-79
2024/03/17 02:31:49;;;;;;;12.10;3.00;;;;;;;7.14;72.84;100318.31;666322;1267;139638;-80
2024/03/17 02:46:52;;;;;;;8.30;1.90;;;;;;;7.26;72.45;100320.27;667223;1267;139375;-80
2024/03/17 03:01:55;;;;;;;10.40;2.00;;;;;;;7.27;71.78;100312.47;666895;1267;139198;-80
2024/03/17 03:16:59;;;;;;;9.10;2.70;;;;;;;7.35;71.21;100300.99;666234;1279;216887;-80
2024/03/17 03:32:02;;;;;;;10.00;2.30;;;;;;;7.42;71.05;100304.29;666165;1263;139918;-82
2024/03/17 03:47:05;;;;;;;7.40;2.30;;;;;;;7.44;71.10;100304.27;667177;1266;139828;-82
2024/03/17 04:02:09;;;;;;;8.60;1.70;;;;;;;7.46;70.79;100298.58;666503;1267;139338;-81
2024/03/17 04:17:14;;;;;;;5.60;2.10;;;;;;;7.45;70.97;100302.16;667575;1268;141044;-79
2024/03/17 04:32:17;;;;;;;7.60;2.10;;;;;;;7.42;72.24;100308.42;669486;1264;138988;-80
2024/03/17 04:47:20;;;;;;;8.00;2.90;;;;;;;7.21;74.46;100321.30;670364;1262;138210;-80
2024/03/17 05:02:23;;;;;;;14.90;4.20;;;;;;;6.70;78.63;100333.14;672190;1265;140786;-79
2024/03/17 05:17:28;;;;;;;5.00;2.40;;;;;;;6.50;80.39;100331.75;668803;1265;138532;-81
2024/03/17 05:32:31;;;;;;;4.30;1.70;;;;;;;6.41;79.91;100344.02;671569;1267;138451;-80
2024/03/17 05:47:34;;;;;;;4.50;1.40;;;;;;;6.28;81.71;100347.83;670212;1278;138680;-80
2024/03/17 06:02:37;;;;;;;5.20;1.80;;;;;;;6.45;82.31;100357.42;667876;1267;138464;-81
2024/03/17 06:17:41;;;;;;;3.50;1.70;;;;;;;6.54;82.22;100365.90;670683;1265;139331;-81
2024/03/17 06:32:46;;;;;;;115.40;34.10;;;;;;;6.58;82.78;100373.56;671087;1262;139022;-82
2024/03/17 06:47:49;;;;;;;10.00;3.60;;;;;;;6.75;82.32;100372.73;672549;1278;140121;-82
2024/03/17 07:02:53;;;;;;;21.80;8.30;;;;;;;6.96;81.16;100378.19;672949;1265;139967;-82
2024/03/17 07:17:56;;;;;;;3.30;2.50;;;;;;;6.92;79.96;100382.17;671790;1278;138907;-81
2024/03/17 07:33:00;;;;;;;5.70;2.20;;;;;;;7.08;79.22;100392.02;672160;1264;138955;-80
2024/03/17 07:48:04;;;;;;;3.00;1.90;;;;;;;7.16;78.83;100403.23;666606;1267;138453;-81
2024/03/17 08:03:07;;;;;;;15.80;7.60;;;;;;;7.18;77.94;100411.77;668721;1268;139441;-81
2024/03/17 08:18:12;;;;;;;4.80;3.20;;;;;;;7.20;77.82;100417.73;671206;1268;138469;-81
2024/03/17 08:33:15;;;;;;;8.10;4.00;;;;;;;7.16;78.08;100426.70;669931;1265;139442;-82
2024/03/17 08:48:18;;;;;;;3.90;2.30;;;;;;;7.47;78.09;100439.12;671313;1267;138972;-82
2024/03/17 09:03:25;;;;;;;7.50;5.90;;;;;;;7.55;78.72;100454.05;670231;1266;139411;-80
2024/03/17 09:18:33;;;;;;;14.10;9.50;;;;;;;7.59;79.59;100460.70;667845;1265;140487;-80
2024/03/17 09:33:40;;;;;;;17.50;7.70;;;;;;;7.58;79.32;100498.91;668453;1268;138789;-81
2024/03/17 09:48:44;;;;;;;15.40;6.10;;;;;;;7.10;80.14;100533.90;672146;1265;138654;-82
2024/03/17 10:03:58;;;;;;;29.50;13.70;;;;;;;7.33;80.66;100549.73;674416;1266;139070;-81
2024/03/17 10:19:39;;;;;;;24.00;9.40;;;;;;;7.28;79.94;100566.60;672471;1266;139508;-82
2024/03/17 10:34:44;;;;;;;32.20;12.00;;;;;;;7.37;78.38;100584.41;673081;1263;139460;-80
2024/03/17 10:49:53;;;;;;;45.40;18.00;;;;;;;7.07;76.89;100602.27;672220;1268;139850;-80
2024/03/17 11:04:59;;;;;;;58.60;28.00;;;;;;;6.97;76.53;100620.00;676522;1267;139602;-80
2024/03/17 11:20:14;;;;;;;24.40;12.90;;;;;;;7.26;75.91;100632.55;672065;1266;139868;-80
2024/03/17 11:35:23;;;;;;;23.90;14.30;;;;;;;6.91;74.91;100647.02;669665;1270;139643;-81
2024/03/17 11:50:27;;;;;;;29.80;10.20;;;;;;;6.80;75.59;100645.64;669980;1265;139280;-79
2024/03/17 12:05:31;;;;;;;13.40;7.00;;;;;;;6.99;74.95;100661.80;671411;1267;138666;-80
2024/03/17 12:20:35;;;;;;;10.00;5.30;;;;;;;6.71;75.41;100662.59;674739;1268;139507;-80
2024/03/17 12:35:40;;;;;;;44.50;13.60;;;;;;;7.13;75.22;100674.61;674508;1266;138642;-81
2024/03/17 12:50:57;;;;;;;15.80;6.90;;;;;;;6.43;73.83;100687.86;674237;1265;138978;-81
2024/03/17 13:06:07;;;;;;;23.20;12.00;;;;;;;6.27;73.92;100693.76;674837;1263;139045;-80
2024/03/17 13:21:10;;;;;;;11.10;5.50;;;;;;;6.26;72.67;100707.52;672184;1267;138762;-81
2024/03/17 13:36:22;;;;;;;10.40;5.70;;;;;;;6.07;71.72;100712.20;674407;1265;139313;-80
2024/03/17 13:51:25;;;;;;;9.80;5.50;;;;;;;6.40;71.85;100710.83;673486;1266;139295;-80
2024/03/17 14:06:28;;;;;;;28.20;10.50;;;;;;;6.45;70.44;100711.20;671080;1267;138887;-81
2024/03/17 14:21:32;;;;;;;16.70;5.50;;;;;;;6.61;69.36;100707.59;669112;1266;139529;-81
2024/03/17 14:36:35;;;;;;;5.30;2.80;;;;;;;6.28;68.11;100717.70;672201;1267;139162;-81
2024/03/17 14:51:38;;;;;;;25.20;9.80;;;;;;;5.88;68.45;100736.07;673381;1267;139591;-81
2024/03/17 15:06:45;;;;;;;20.60;7.80;;;;;;;5.80;70.06;100739.65;672540;1267;138830;-81
2024/03/17 15:21:48;;;;;;;17.80;6.50;;;;;;;5.80;69.04;100736.92;671312;1276;149638;-80
2024/03/17 15:36:52;;;;;;;17.70;7.20;;;;;;;5.78;69.30;100737.89;669019;1279;140868;-81
2024/03/17 15:52:03;;;;;;;27.70;9.30;;;;;;;5.62;68.65;100749.44;668447;1278;140199;-81
2024/03/17 16:07:07;;;;;;;31.20;8.40;;;;;;;5.25;67.99;100755.44;668535;1265;138739;-82
2024/03/17 16:22:13;;;;;;;36.20;12.00;;;;;;;5.04;68.39;100764.38;669968;1262;140052;-80
2024/03/17 16:37:17;;;;;;;16.10;6.60;;;;;;;4.95;68.71;100775.16;671200;1266;138943;-83
2024/03/17 16:52:25;;;;;;;18.60;7.10;;;;;;;4.78;67.96;100778.15;669088;1267;138759;-80
2024/03/17 17:07:29;;;;;;;24.70;7.70;;;;;;;4.70;68.04;100785.04;669282;1265;140030;-81
2024/03/17 17:22:33;;;;;;;18.70;6.20;;;;;;;4.49;68.45;100795.88;671548;1264;138906;-81
2024/03/17 17:37:38;;;;;;;31.20;12.90;;;;;;;4.46;69.10;100798.29;668734;1263;139279;-82
2024/03/17 17:52:41;;;;;;;76.80;22.50;;;;;;;4.41;69.04;100796.67;667329;1276;139108;-82
2024/03/17 18:07:45;;;;;;;30.10;9.80;;;;;;;4.25;70.06;100791.44;667248;1267;139587;-80
2024/03/17 18:22:51;;;;;;;20.40;7.40;;;;;;;4.19;70.83;100783.80;668256;1262;139005;-81
2024/03/17 18:37:54;;;;;;;252.20;113.90;;;;;;;4.16;71.40;100789.33;667567;1265;139705;-81
2024/03/17 18:52:57;;;;;;;106.60;57.70;;;;;;;4.12;72.05;100791.25;669062;1267;140102;-81
2024/03/17 19:08:01;;;;;;;96.30;44.50;;;;;;;4.01;71.97;100790.45;671944;1262;139561;-80
2024/03/17 19:23:04;;;;;;;42.70;20.70;;;;;;;3.98;72.80;100780.41;668166;1278;138775;-80
2024/03/17 19:38:07;;;;;;;56.00;19.40;;;;;;;3.89;72.94;100781.76;667668;1265;139347;-81
2024/03/17 19:53:11;;;;;;;21.50;8.30;;;;;;;3.80;73.36;100781.84;668705;1267;139171;-81
2024/03/17 20:08:15;;;;;;;27.10;11.90;;;;;;;3.70;73.86;100781.86;672417;1262;140240;-81
2024/03/17 20:23:19;;;;;;;12.40;5.30;;;;;;;3.62;75.33;100783.27;674354;1267;139296;-84
2024/03/17 20:38:24;;;;;;;15.60;5.90;;;;;;;3.57;75.53;100773.17;676582;1262;139001;-84
2024/03/17 20:53:31;;;;;;;13.90;6.90;;;;;;;3.49;76.20;100765.92;672188;1265;138941;-83
2024/03/17 21:08:41;;;;;;;45.50;24.20;;;;;;;3.43;77.09;100760.71;672513;1265;139576;-82
2024/03/17 21:23:44;;;;;;;14.20;5.90;;;;;;;3.43;77.61;100742.56;667877;1278;139280;-83
2024/03/17 21:38:47;;;;;;;11.30;4.90;;;;;;;3.40;77.71;100736.67;667741;1265;139104;-81
2024/03/17 21:53:51;;;;;;;16.20;6.90;;;;;;;3.39;77.78;100722.73;668174;1266;138977;-81
2024/03/17 22:08:54;;;;;;;8.10;4.30;;;;;;;3.23;78.49;100712.64;668435;1268;139639;-81
2024/03/17 22:23:57;;;;;;;13.50;6.90;;;;;;;3.19;79.34;100705.06;669702;1267;139243;-80
2024/03/17 22:39:02;;;;;;;8.00;5.30;;;;;;;3.14;79.27;100690.94;670419;1266;138951;-81
2024/03/17 22:54:05;;;;;;;9.80;4.50;;;;;;;3.22;79.33;100681.59;670533;1267;139983;-81
2024/03/17 23:09:08;;;;;;;9.90;4.90;;;;;;;3.23;79.36;100681.19;670963;1267;139666;-81
2024/03/17 23:24:11;;;;;;;6.10;3.50;;;;;;;3.25;79.72;100678.80;669153;1264;138862;-81
2024/03/17 23:39:15;;;;;;;9.40;4.70;;;;;;;3.29;79.74;100677.03;672904;1267;139179;-81
